Time;durP1;ratioP1;P1;durP2;ratioP2;P2;SDS_P1;SDS_P2;PMS_P1;PMS_P2;Temp;Humidity;BMP_temperature;BMP_pressure;BME280_temperature;BME280_humidity;BME280_pressure;Samples;Min_cycle;Max_cycle;Signal;HPM_P1;HPM_P2
2023/04/07 00:01:11;;;;;;;5.38;3.30;;;5.10;99.90;;;;;;5070162;28;19927;-62
2023/04/07 00:03:39;;;;;;;6.65;3.75;;;5.10;99.90;;;;;;5064735;28;20048;-63
2023/04/07 00:06:05;;;;;;;4.93;3.50;;;5.00;99.90;;;;;;5060603;28;20123;-63
2023/04/07 00:08:31;;;;;;;4.78;3.53;;;5.10;99.90;;;;;;5063450;28;20143;-61
2023/04/07 00:10:57;;;;;;;4.70;3.38;;;5.10;99.90;;;;;;5062435;28;20041;-60
2023/04/07 00:13:23;;;;;;;5.65;3.65;;;5.10;99.90;;;;;;5063621;28;20047;-55
2023/04/07 00:15:48;;;;;;;6.15;3.30;;;5.10;99.90;;;;;;5059674;28;20036;-59
2023/04/07 00:18:14;;;;;;;5.68;3.55;;;5.10;99.90;;;;;;5055079;28;20493;-61
2023/04/07 00:20:39;;;;;;;5.88;3.10;;;5.10;99.90;;;;;;5048100;28;20120;-62
2023/04/07 00:23:05;;;;;;;5.28;3.20;;;5.10;99.90;;;;;;5048776;28;20099;-63
2023/04/07 00:25:30;;;;;;;6.32;3.40;;;5.00;99.90;;;;;;5047516;28;20079;-62
2023/04/07 00:27:56;;;;;;;5.53;3.20;;;5.00;99.90;;;;;;5049447;28;20037;-60
2023/04/07 00:30:22;;;;;;;5.53;3.40;;;5.00;99.90;;;;;;5050398;28;20032;-62
2023/04/07 00:32:47;;;;;;;4.30;3.35;;;5.00;99.90;;;;;;5040468;28;20048;-59
2023/04/07 00:35:13;;;;;;;4.50;3.25;;;4.90;99.90;;;;;;5048599;28;20033;-62
2023/04/07 00:37:39;;;;;;;4.50;2.88;;;4.90;99.90;;;;;;5047405;28;20052;-61
2023/04/07 00:40:05;;;;;;;4.53;3.17;;;4.90;99.90;;;;;;5048215;28;20052;-59
2023/04/07 00:42:32;;;;;;;4.32;3.10;;;4.90;99.90;;;;;;5047320;28;20033;-61
2023/04/07 00:44:57;;;;;;;4.40;3.08;;;5.00;99.90;;;;;;5052510;28;20036;-61
2023/04/07 00:47:23;;;;;;;4.07;3.08;;;5.00;99.90;;;;;;5050720;28;20098;-61
2023/04/07 00:49:49;;;;;;;3.22;2.55;;;5.10;99.90;;;;;;5056119;28;20033;-63
2023/04/07 00:52:15;;;;;;;4.85;3.40;;;5.10;99.90;;;;;;5040814;28;20037;-62
2023/04/07 00:54:41;;;;;;;5.70;3.50;;;5.20;99.90;;;;;;5056220;28;20052;-61
2023/04/07 00:57:08;;;;;;;5.25;3.28;;;5.10;99.90;;;;;;5048294;28;20126;-59
2023/04/07 00:59:33;;;;;;;5.32;3.50;;;5.10;99.90;;;;;;5055086;28;20052;-58
2023/04/07 01:02:11;;;;;;;4.20;2.95;;;5.10;99.90;;;;;;5044399;28;20040;-58
2023/04/07 01:04:48;;;;;;;4.93;3.45;;;5.10;99.90;;;;;;5056503;28;20040;-56
2023/04/07 01:07:16;;;;;;;;;;;5.10;99.90;;;;;;5045869;28;20048;-56
2023/04/07 01:09:50;;;;;;;4.72;2.90;;;5.00;99.90;;;;;;5055645;28;19978;-57
2023/04/07 01:12:35;;;;;;;3.72;2.70;;;5.00;99.90;;;;;;5041983;28;20612;-56
2023/04/07 01:15:09;;;;;;;3.85;2.50;;;5.00;99.90;;;;;;5051868;28;20037;-56
2023/04/07 01:17:36;;;;;;;4.13;2.13;;;5.00;99.90;;;;;;5048353;28;20635;-60
2023/04/07 01:20:06;;;;;;;3.38;2.20;;;5.00;99.90;;;;;;5055880;28;20064;-59
2023/04/07 01:22:41;;;;;;;4.30;2.08;;;5.10;99.90;;;;;;5046500;28;20040;-61
2023/04/07 01:25:37;;;;;;;4.28;2.78;;;5.10;99.90;;;;;;5055893;28;20116;-62
2023/04/07 01:28:39;;;;;;;2.22;1.77;;;5.00;99.90;;;;;;5041576;28;20033;-62
2023/04/07 01:31:08;;;;;;;2.85;1.80;;;5.00;99.90;;;;;;5047850;28;20033;-60
2023/04/07 01:33:34;;;;;;;2.58;1.90;;;5.00;99.90;;;;;;5049137;28;20058;-60
2023/04/07 01:36:02;;;;;;;3.70;2.20;;;5.00;99.90;;;;;;5050246;28;20045;-61
2023/04/07 01:38:28;;;;;;;2.33;1.75;;;5.00;99.90;;;;;;5047647;28;20033;-59
2023/04/07 01:40:56;;;;;;;2.92;2.00;;;5.10;99.90;;;;;;5042355;28;20083;-59
2023/04/07 01:43:24;;;;;;;2.13;1.73;;;5.10;99.90;;;;;;5048360;28;20401;-61
2023/04/07 01:45:51;;;;;;;3.38;2.33;;;5.10;99.90;;;;;;5046980;28;20041;-57
2023/04/07 01:48:17;;;;;;;2.47;1.73;;;5.10;99.90;;;;;;5048147;28;20045;-58
2023/04/07 01:50:44;;;;;;;3.10;2.25;;;5.00;99.90;;;;;;5052313;28;20401;-60
2023/04/07 01:53:10;;;;;;;2.45;1.77;;;5.00;99.90;;;;;;5045926;28;20051;-61
2023/04/07 01:55:37;;;;;;;2.17;1.55;;;4.90;99.90;;;;;;5059177;28;20512;-60
2023/04/07 01:58:06;;;;;;;3.33;1.90;;;5.00;99.90;;;;;;5046156;28;20044;-62
2023/04/07 02:00:35;;;;;;;2.22;1.42;;;5.00;99.90;;;;;;5052501;28;20070;-58
2023/04/07 02:03:10;;;;;;;2.55;1.80;;;5.00;99.90;;;;;;5046433;28;20041;-59
2023/04/07 02:05:38;;;;;;;3.53;1.85;;;5.00;99.90;;;;;;5046680;28;20041;-60
2023/04/07 02:08:06;;;;;;;1.98;1.50;;;5.10;99.90;;;;;;5049103;28;20043;-62
2023/04/07 02:10:35;;;;;;;2.15;1.83;;;5.00;99.90;;;;;;5049149;28;20037;-60
2023/04/07 02:13:03;;;;;;;2.22;1.80;;;4.90;99.90;;;;;;5046768;28;20421;-61
2023/04/07 02:15:31;;;;;;;2.17;1.60;;;4.90;99.90;;;;;;5052868;28;20040;-59
2023/04/07 02:17:59;;;;;;;3.33;1.73;;;4.90;99.90;;;;;;5046293;28;20096;-61
2023/04/07 02:20:25;;;;;;;3.17;1.65;;;4.90;99.90;;;;;;5048134;28;20041;-60
2023/04/07 02:22:51;;;;;;;2.88;1.85;;;4.90;99.90;;;;;;5045795;28;20501;-60
2023/04/07 02:25:25;;;;;;;2.40;1.70;;;4.90;99.90;;;;;;5050650;28;20056;-61
2023/04/07 02:27:51;;;;;;;2.17;1.67;;;4.90;99.90;;;;;;5046343;28;20068;-60
2023/04/07 02:30:17;;;;;;;2.83;2.10;;;4.90;99.90;;;;;;5046446;28;20119;-59
2023/04/07 02:32:42;;;;;;;3.40;1.70;;;4.90;99.90;;;;;;5044980;28;20037;-61
2023/04/07 02:35:08;;;;;;;3.95;1.90;;;5.00;99.90;;;;;;5049744;28;20570;-62
2023/04/07 02:37:34;;;;;;;3.40;2.25;;;5.00;99.90;;;;;;5045103;28;20448;-61
2023/04/07 02:40:00;;;;;;;3.92;2.00;;;4.90;99.90;;;;;;5044937;28;20128;-62
2023/04/07 02:42:25;;;;;;;2.60;2.00;;;4.90;99.90;;;;;;5042698;28;20115;-61
2023/04/07 02:44:51;;;;;;;2.25;1.73;;;5.00;99.90;;;;;;5049098;28;20041;-61
2023/04/07 02:47:17;;;;;;;2.00;1.70;;;5.00;99.90;;;;;;5044544;28;20051;-59
2023/04/07 02:49:42;;;;;;;;;;;5.10;99.90;;;;;;5048895;28;20389;-58
2023/04/07 02:52:08;;;;;;;1.98;1.60;;;5.00;99.90;;;;;;5043121;28;19916;-61
2023/04/07 02:54:33;;;;;;;2.22;1.80;;;5.00;99.90;;;;;;5054252;28;20519;-62
2023/04/07 02:56:59;;;;;;;;;;;5.00;99.90;;;;;;5046043;28;20145;-60
2023/04/07 02:59:25;;;;;;;2.35;1.70;;;5.10;99.90;;;;;;5045610;28;19928;-58
2023/04/07 03:01:51;;;;;;;2.35;1.65;;;5.00;99.90;;;;;;5048825;28;20460;-61
2023/04/07 03:04:16;;;;;;;3.50;1.63;;;5.10;99.90;;;;;;5048411;28;20512;-55
2023/04/07 03:06:42;;;;;;;3.03;1.60;;;5.10;99.90;;;;;;5045576;28;20041;-62
2023/04/07 03:09:07;;;;;;;2.53;1.65;;;5.10;99.90;;;;;;5046007;28;20029;-62
2023/04/07 03:11:33;;;;;;;3.00;2.05;;;5.10;99.90;;;;;;5039473;28;20053;-61
2023/04/07 03:13:58;;;;;;;2.72;1.63;;;5.10;99.90;;;;;;5048273;28;20059;-60
2023/04/07 03:16:24;;;;;;;2.17;1.67;;;5.00;99.90;;;;;;5045129;28;20138;-54
2023/04/07 03:18:50;;;;;;;3.03;1.85;;;4.90;99.90;;;;;;5048012;28;20136;-59
2023/04/07 03:21:15;;;;;;;3.30;1.40;;;5.00;99.90;;;;;;5045775;28;20047;-56
2023/04/07 03:23:41;;;;;;;3.05;1.77;;;5.00;99.90;;;;;;5047303;28;20500;-58
2023/04/07 03:26:07;;;;;;;2.75;1.60;;;5.10;99.90;;;;;;5051572;28;20037;-63
2023/04/07 03:28:32;;;;;;;;;;;5.10;99.90;;;;;;5047996;28;20127;-63
2023/04/07 03:30:58;;;;;;;2.15;1.35;;;4.90;99.90;;;;;;5044422;28;19923;-61
2023/04/07 03:33:23;;;;;;;2.72;1.60;;;4.90;99.90;;;;;;5046816;28;20075;-58
2023/04/07 03:35:49;;;;;;;2.72;1.52;;;4.90;99.90;;;;;;5043627;28;20041;-61
2023/04/07 03:38:15;;;;;;;1.90;1.40;;;4.90;99.90;;;;;;5045698;28;20041;-61
2023/04/07 03:40:40;;;;;;;1.60;1.10;;;4.90;99.90;;;;;;5044459;28;20049;-61
2023/04/07 03:43:11;;;;;;;;;;;4.90;99.90;;;;;;5044946;28;20109;-61
2023/04/07 03:45:37;;;;;;;1.58;1.05;;;4.90;99.90;;;;;;5043776;28;20019;-60
2023/04/07 03:48:03;;;;;;;1.52;1.00;;;4.90;99.90;;;;;;5045754;28;20045;-60
2023/04/07 03:50:28;;;;;;;1.75;1.20;;;4.80;99.90;;;;;;5052852;28;20431;-61
2023/04/07 03:52:54;;;;;;;1.70;1.10;;;4.80;99.90;;;;;;5046339;28;20040;-62
2023/04/07 03:55:21;;;;;;;;;;;4.80;99.90;;;;;;5056769;28;20098;-61
2023/04/07 03:57:46;;;;;;;2.05;1.30;;;4.80;99.90;;;;;;5048957;28;19920;-59
2023/04/07 04:00:12;;;;;;;;;;;4.80;99.90;;;;;;5062145;28;20055;-62
2023/04/07 04:02:38;;;;;;;1.75;1.05;;;4.70;99.90;;;;;;5047266;28;19931;-58
2023/04/07 04:05:04;;;;;;;1.70;1.30;;;4.70;99.90;;;;;;5051182;28;20556;-59
2023/04/07 04:07:30;;;;;;;;;;;4.70;99.90;;;;;;5047916;28;20095;-61
2023/04/07 04:09:55;;;;;;;2.50;1.40;;;4.70;99.90;;;;;;5054542;28;20571;-58
2023/04/07 04:12:21;;;;;;;1.55;1.20;;;4.70;99.90;;;;;;5043836;28;20029;-58
2023/04/07 04:14:47;;;;;;;1.25;1.00;;;4.70;99.90;;;;;;5049396;28;20045;-58
2023/04/07 04:17:12;;;;;;;1.55;1.10;;;4.70;99.90;;;;;;5047972;28;20090;-62
2023/04/07 04:19:38;;;;;;;1.83;1.10;;;4.80;99.90;;;;;;5049275;28;20040;-61
2023/04/07 04:22:03;;;;;;;1.98;1.50;;;4.80;99.90;;;;;;5047799;28;20040;-62
2023/04/07 04:24:29;;;;;;;1.77;1.50;;;4.80;99.90;;;;;;5056558;28;20485;-60
2023/04/07 04:26:55;;;;;;;1.65;1.15;;;4.70;99.90;;;;;;5047517;28;20072;-60
2023/04/07 04:29:21;;;;;;;2.65;1.27;;;4.70;99.90;;;;;;5048879;28;20111;-59
2023/04/07 04:31:46;;;;;;;1.10;1.00;;;4.80;99.90;;;;;;5044535;28;20504;-60
2023/04/07 04:34:12;;;;;;;1.60;1.33;;;4.80;99.90;;;;;;5047988;28;20087;-58
2023/04/07 04:36:40;;;;;;;1.80;1.30;;;4.80;99.90;;;;;;5048311;28;20529;-59
2023/04/07 04:39:05;;;;;;;2.10;1.40;;;4.80;99.90;;;;;;5047888;28;20040;-60
2023/04/07 04:41:31;;;;;;;2.97;1.20;;;4.80;99.90;;;;;;5047339;28;20064;-61
2023/04/07 04:43:57;;;;;;;4.53;1.77;;;4.80;99.90;;;;;;5049760;28;20037;-61
2023/04/07 04:46:23;;;;;;;3.80;1.30;;;4.80;99.90;;;;;;5048229;28;20052;-62
2023/04/07 04:48:50;;;;;;;2.05;1.40;;;4.80;99.90;;;;;;5050166;28;20447;-62
2023/04/07 04:51:16;;;;;;;1.58;1.30;;;4.80;99.90;;;;;;5047514;28;20045;-61
2023/04/07 04:53:41;;;;;;;2.78;1.25;;;4.80;99.90;;;;;;5049781;28;20161;-59
2023/04/07 04:56:07;;;;;;;2.03;1.63;;;4.70;99.90;;;;;;5053165;28;20036;-59
2023/04/07 04:58:33;;;;;;;2.65;1.23;;;4.70;99.90;;;;;;5049238;28;20067;-62
2023/04/07 05:01:00;;;;;;;2.65;1.33;;;4.80;99.90;;;;;;5052666;28;20033;-57
2023/04/07 05:03:27;;;;;;;2.03;1.40;;;4.80;99.90;;;;;;5044793;28;20037;-58
2023/04/07 05:05:53;;;;;;;1.40;1.10;;;4.80;99.90;;;;;;5053557;28;20041;-60
2023/04/07 05:08:18;;;;;;;3.42;1.58;;;4.90;99.90;;;;;;5049504;28;20094;-61
2023/04/07 05:10:45;;;;;;;1.92;1.55;;;4.80;99.90;;;;;;5048277;28;20060;-59
2023/04/07 05:13:11;;;;;;;1.67;1.15;;;4.70;99.90;;;;;;5049876;28;20045;-59
2023/04/07 05:15:36;;;;;;;2.25;1.23;;;4.80;99.90;;;;;;5046082;28;20076;-62
2023/04/07 05:18:02;;;;;;;1.60;1.20;;;4.80;99.90;;;;;;5049141;28;20529;-60
2023/04/07 05:20:28;;;;;;;2.53;1.40;;;4.80;99.90;;;;;;5048038;28;20082;-59
2023/04/07 05:22:53;;;;;;;1.40;0.93;;;4.80;99.90;;;;;;5047675;28;20082;-59
2023/04/07 05:25:19;;;;;;;1.55;1.10;;;4.80;99.90;;;;;;5054039;28;20175;-55
2023/04/07 05:27:45;;;;;;;1.65;1.20;;;4.80;99.90;;;;;;5046874;28;20072;-63
2023/04/07 05:30:11;;;;;;;1.33;1.20;;;4.80;99.90;;;;;;5050203;28;20044;-59
2023/04/07 05:32:37;;;;;;;1.77;1.02;;;4.80;99.90;;;;;;5045271;28;20052;-60
2023/04/07 05:35:02;;;;;;;1.48;0.98;;;4.90;99.90;;;;;;5058179;28;20037;-62
2023/04/07 05:37:28;;;;;;;1.55;1.20;;;4.90;99.90;;;;;;5048665;28;20041;-59
2023/04/07 05:39:53;;;;;;;3.13;0.90;;;4.90;99.90;;;;;;5050175;28;20068;-60
2023/04/07 05:42:19;;;;;;;;;;;4.90;99.90;;;;;;5046787;28;20374;-58
2023/04/07 05:44:45;;;;;;;1.40;0.90;;;4.80;99.90;;;;;;5049525;28;20006;-60
2023/04/07 05:47:11;;;;;;;4.13;0.95;;;4.80;99.90;;;;;;5046736;28;20749;-61
2023/04/07 05:49:36;;;;;;;1.52;1.00;;;4.80;99.90;;;;;;5053920;28;20044;-59
2023/04/07 05:52:02;;;;;;;1.08;0.77;;;4.80;99.90;;;;;;5045956;28;20056;-59
2023/04/07 05:54:29;;;;;;;1.30;0.95;;;4.80;99.90;;;;;;5052773;28;20535;-60
2023/04/07 05:56:55;;;;;;;1.33;0.98;;;4.90;99.90;;;;;;5045349;28;20104;-58
2023/04/07 05:59:20;;;;;;;2.72;1.33;;;4.80;99.90;;;;;;5052761;28;20040;-60
2023/04/07 06:01:48;;;;;;;1.63;0.80;;;4.80;99.90;;;;;;5043531;28;20048;-63
2023/04/07 06:04:13;;;;;;;1.23;0.88;;;4.80;99.90;;;;;;5052304;28;20097;-58
2023/04/07 06:06:39;;;;;;;1.15;0.70;;;4.90;99.90;;;;;;5044760;28;20120;-54
2023/04/07 06:09:04;;;;;;;1.13;0.80;;;4.90;99.90;;;;;;5050861;28;20024;-59
2023/04/07 06:11:30;;;;;;;2.40;0.75;;;4.80;99.90;;;;;;5047694;28;20036;-56
2023/04/07 06:13:56;;;;;;;1.02;0.80;;;4.80;99.90;;;;;;5047253;28;20033;-60
2023/04/07 06:16:21;;;;;;;;;;;4.80;99.90;;;;;;5046482;28;20428;-62
2023/04/07 06:18:47;;;;;;;1.08;0.80;;;4.80;99.90;;;;;;5044324;28;20377;-58
2023/04/07 06:21:12;;;;;;;2.10;1.30;;;4.70;99.90;;;;;;5050843;28;20037;-58
2023/04/07 06:23:38;;;;;;;3.17;0.70;;;4.80;99.90;;;;;;5047388;28;20124;-62
2023/04/07 06:26:04;;;;;;;;;;;4.90;99.90;;;;;;5051895;28;20037;-59
2023/04/07 06:28:30;;;;;;;1.67;1.08;;;4.90;99.90;;;;;;5048686;28;19916;-57
2023/04/07 06:30:55;;;;;;;2.65;0.90;;;4.90;99.90;;;;;;5048345;28;20037;-61
2023/04/07 06:33:24;;;;;;;;;;;4.80;99.90;;;;;;5046130;28;20032;-60
2023/04/07 06:35:50;;;;;;;5.65;1.05;;;4.80;99.90;;;;;;5048543;28;19927;-60
2023/04/07 06:38:16;;;;;;;1.08;0.70;;;4.80;99.90;;;;;;5045728;28;20036;-60
2023/04/07 06:40:42;;;;;;;2.83;1.23;;;4.70;99.90;;;;;;5048232;28;20044;-62
2023/04/07 06:43:07;;;;;;;1.40;0.70;;;4.70;99.90;;;;;;5045580;28;20420;-61
2023/04/07 06:45:33;;;;;;;1.95;0.77;;;4.70;99.90;;;;;;5052732;28;20171;-61
2023/04/07 06:47:58;;;;;;;1.42;0.63;;;4.80;99.90;;;;;;5046467;28;20151;-61
2023/04/07 06:50:24;;;;;;;1.10;0.70;;;4.90;99.90;;;;;;5052133;28;20036;-61
2023/04/07 06:52:50;;;;;;;0.63;0.60;;;4.90;99.90;;;;;;5045075;28;20048;-56
2023/04/07 06:55:15;;;;;;;1.10;0.80;;;4.90;99.90;;;;;;5046818;28;20053;-59
2023/04/07 06:57:41;;;;;;;0.80;0.70;;;4.90;99.90;;;;;;5044995;28;20041;-61
2023/04/07 07:00:08;;;;;;;0.93;0.60;;;4.90;99.90;;;;;;5053855;28;20076;-60
2023/04/07 07:02:34;;;;;;;1.40;0.77;;;4.90;99.90;;;;;;5042064;28;20535;-59
2023/04/07 07:05:00;;;;;;;1.48;0.75;;;5.00;99.90;;;;;;5047795;28;20025;-61
2023/04/07 07:07:26;;;;;;;0.55;0.50;;;5.00;99.90;;;;;;5040677;28;20176;-60
2023/04/07 07:09:53;;;;;;;2.25;0.60;;;5.10;99.90;;;;;;5048142;28;20037;-61
2023/04/07 07:12:18;;;;;;;1.80;0.80;;;5.30;99.90;;;;;;5043631;28;20974;-60
2023/04/07 07:14:44;;;;;;;0.65;0.52;;;5.30;99.90;;;;;;5048340;28;20033;-60
2023/04/07 07:17:09;;;;;;;1.27;0.70;;;5.30;99.90;;;;;;5040139;28;20170;-61
2023/04/07 07:19:36;;;;;;;1.48;0.50;;;5.30;99.90;;;;;;5048778;28;20055;-58
2023/04/07 07:22:03;;;;;;;1.20;0.60;;;5.30;99.90;;;;;;5045107;28;20044;-60
2023/04/07 07:24:29;;;;;;;1.40;1.00;;;5.40;99.90;;;;;;5053995;28;20043;-62
2023/04/07 07:26:56;;;;;;;1.27;0.70;;;5.30;99.90;;;;;;5045328;28;20475;-60
2023/04/07 07:29:21;;;;;;;3.65;0.70;;;5.30;99.90;;;;;;5051739;28;20540;-61
2023/04/07 07:31:47;;;;;;;1.00;0.70;;;5.30;99.90;;;;;;5046770;28;20041;-61
2023/04/07 07:34:13;;;;;;;1.70;1.15;;;5.30;99.90;;;;;;5045550;28;20371;-55
2023/04/07 07:36:38;;;;;;;1.88;1.02;;;5.20;99.90;;;;;;5048580;28;20048;-59
2023/04/07 07:39:04;;;;;;;0.75;0.73;;;5.20;99.90;;;;;;5051622;28;20037;-60
2023/04/07 07:41:30;;;;;;;1.38;0.90;;;5.20;99.90;;;;;;5048831;28;20363;-59
2023/04/07 07:43:56;;;;;;;1.30;1.00;;;5.20;99.90;;;;;;5051243;28;20809;-58
2023/04/07 07:46:24;;;;;;;;;;;5.30;99.90;;;;;;5048583;28;20040;-60
2023/04/07 07:48:50;;;;;;;2.33;1.20;;;5.40;99.90;;;;;;5048022;28;19954;-61
2023/04/07 07:51:17;;;;;;;1.80;1.10;;;5.30;99.90;;;;;;5051765;28;20723;-61
2023/04/07 07:53:44;;;;;;;2.00;1.33;;;5.30;99.90;;;;;;5050357;28;20049;-57
2023/04/07 07:56:10;;;;;;;2.65;1.20;;;5.20;99.90;;;;;;5054057;28;20389;-55
2023/04/07 07:58:36;;;;;;;1.80;1.30;;;5.30;99.90;;;;;;5051267;28;20055;-56
2023/04/07 08:01:01;;;;;;;1.90;1.38;;;5.30;99.90;;;;;;5058437;28;20080;-52
2023/04/07 08:03:27;;;;;;;1.98;1.40;;;5.30;99.90;;;;;;5049127;28;20041;-58
2023/04/07 08:05:52;;;;;;;;;;;5.30;99.90;;;;;;5048099;28;20573;-53
2023/04/07 08:08:18;;;;;;;2.75;1.70;;;5.40;99.90;;;;;;5050133;28;19927;-56
2023/04/07 08:10:44;;;;;;;3.25;1.48;;;5.40;99.90;;;;;;5043483;28;20399;-60
2023/04/07 08:13:09;;;;;;;1.80;1.35;;;5.40;99.90;;;;;;5048038;28;20068;-56
2023/04/07 08:15:35;;;;;;;2.80;1.60;;;5.40;99.90;;;;;;5061264;28;20040;-57
2023/04/07 08:18:03;;;;;;;1.67;1.27;;;5.50;99.90;;;;;;5049036;28;20401;-60
2023/04/07 08:20:30;;;;;;;2.55;1.60;;;5.50;99.90;;;;;;5049986;28;20140;-60
2023/04/07 08:22:56;;;;;;;2.13;1.17;;;5.60;99.90;;;;;;5047462;28;20033;-58
2023/04/07 08:25:21;;;;;;;1.73;1.23;;;5.70;99.90;;;;;;5054549;28;20039;-56
2023/04/07 08:27:47;;;;;;;1.80;1.35;;;5.80;99.90;;;;;;5047894;28;20053;-59
2023/04/07 08:30:13;;;;;;;1.25;1.00;;;5.90;99.90;;;;;;5050216;28;20033;-60
2023/04/07 08:32:41;;;;;;;1.42;1.08;;;5.90;99.90;;;;;;5046636;28;20080;-61
2023/04/07 08:35:07;;;;;;;2.25;1.50;;;6.00;99.90;;;;;;5048309;28;20076;-59
2023/04/07 08:37:34;;;;;;;2.03;1.50;;;6.00;99.90;;;;;;5047241;28;20118;-61
2023/04/07 08:40:00;;;;;;;2.35;1.63;;;6.00;99.90;;;;;;5050366;28;20116;-61
2023/04/07 08:42:28;;;;;;;2.13;1.60;;;6.00;99.90;;;;;;5046166;28;20401;-61
2023/04/07 08:45:02;;;;;;;2.63;1.55;;;6.00;99.90;;;;;;5056065;28;20037;-61
2023/04/07 08:47:30;;;;;;;2.05;1.50;;;6.00;99.90;;;;;;5044922;28;20041;-62
2023/04/07 08:49:58;;;;;;;2.28;1.50;;;6.10;99.90;;;;;;5055746;28;20082;-59
2023/04/07 08:52:29;;;;;;;1.73;1.25;;;6.00;99.90;;;;;;5047115;28;20048;-60
2023/04/07 08:54:57;;;;;;;1.70;1.33;;;5.90;99.90;;;;;;5056201;28;20041;-59
2023/04/07 08:57:23;;;;;;;1.42;1.08;;;5.90;99.90;;;;;;5047620;28;20045;-59
2023/04/07 08:59:50;;;;;;;3.08;1.75;;;5.90;99.90;;;;;;5050391;28;20177;-61
2023/04/07 09:02:16;;;;;;;4.45;1.75;;;5.90;99.90;;;;;;5043338;28;20048;-60
2023/04/07 09:04:43;;;;;;;1.77;1.30;;;5.90;99.90;;;;;;5050212;28;20045;-60
2023/04/07 09:07:09;;;;;;;2.08;1.50;;;5.90;99.90;;;;;;5047113;28;20059;-61
2023/04/07 09:09:34;;;;;;;2.03;1.48;;;6.00;99.90;;;;;;5050196;28;20041;-60
2023/04/07 09:12:00;;;;;;;1.58;1.30;;;6.10;99.90;;;;;;5046464;28;20050;-59
2023/04/07 09:14:26;;;;;;;1.85;1.20;;;6.20;99.90;;;;;;5050238;28;20488;-61
2023/04/07 09:16:53;;;;;;;1.45;1.20;;;6.20;99.90;;;;;;5046933;28;20037;-60
2023/04/07 09:19:19;;;;;;;1.83;1.30;;;6.20;99.90;;;;;;5049172;28;20037;-60
2023/04/07 09:21:54;;;;;;;1.85;1.25;;;6.30;99.90;;;;;;5047370;28;20036;-62
2023/04/07 09:24:25;;;;;;;1.77;1.10;;;6.40;99.90;;;;;;5054445;28;20032;-58
2023/04/07 09:27:07;;;;;;;1.20;1.10;;;6.30;99.90;;;;;;5046886;28;20656;-62
2023/04/07 09:29:33;;;;;;;1.30;0.90;;;6.30;99.90;;;;;;5048312;28;20115;-60
2023/04/07 09:31:58;;;;;;;0.75;0.68;;;6.30;99.90;;;;;;5042901;28;20627;-57
2023/04/07 09:34:24;;;;;;;;;;;6.30;99.90;;;;;;5047292;28;20041;-60
2023/04/07 09:36:50;;;;;;;1.00;0.73;;;6.30;99.90;;;;;;5044954;28;20000;-62
2023/04/07 09:39:15;;;;;;;;;;;6.20;99.90;;;;;;5048511;28;20041;-61
2023/04/07 09:41:41;;;;;;;1.85;1.00;;;6.20;99.90;;;;;;5046610;28;19967;-60
2023/04/07 09:44:06;;;;;;;;;;;6.20;99.90;;;;;;5052381;28;20728;-60
2023/04/07 09:46:32;;;;;;;0.90;0.80;;;6.10;99.90;;;;;;5053563;28;19924;-52
2023/04/07 09:49:04;;;;;;;;;;;6.10;99.90;;;;;;5049245;28;20041;-59
2023/04/07 09:51:29;;;;;;;1.60;1.30;;;6.00;99.90;;;;;;5044523;28;20464;-57
2023/04/07 09:56:31;;;;;;;1.17;1.02;;;5.80;99.90;;;;;;5559700;23;20379;-61
2023/04/07 09:58:56;;;;;;;2.33;1.10;;;5.90;99.90;;;;;;4944770;28;20054;-61
2023/04/07 10:01:22;;;;;;;;;;;6.00;99.90;;;;;;4944111;28;20085;-63
2023/04/07 10:03:49;;;;;;;1.67;0.85;;;6.00;99.90;;;;;;4945835;29;19922;-63
2023/04/07 10:06:15;;;;;;;1.30;1.10;;;6.10;99.90;;;;;;4944948;29;20035;-62
2023/04/07 10:08:42;;;;;;;1.58;1.10;;;6.10;99.90;;;;;;4948054;28;20047;-61
2023/04/07 10:11:08;;;;;;;1.50;0.98;;;6.10;99.90;;;;;;4944114;29;20040;-62
2023/04/07 10:13:36;;;;;;;1.45;1.17;;;6.10;99.90;;;;;;4933130;29;20754;-62
2023/04/07 10:16:04;;;;;;;1.58;0.85;;;5.90;99.90;;;;;;4935668;29;20078;-60
2023/04/07 10:18:32;;;;;;;1.65;1.00;;;5.90;99.90;;;;;;4944056;29;20187;-61
2023/04/07 10:21:03;;;;;;;1.63;0.70;;;5.90;99.90;;;;;;4942997;29;20517;-61
2023/04/07 10:23:58;;;;;;;1.10;0.70;;;6.00;99.90;;;;;;4943849;29;20043;-62
2023/04/07 10:26:29;;;;;;;1.40;0.90;;;6.00;99.90;;;;;;4935072;29;20055;-63
2023/04/07 10:29:03;;;;;;;0.80;0.70;;;6.10;99.90;;;;;;4944712;29;20039;-63
2023/04/07 10:31:29;;;;;;;1.38;0.60;;;6.20;99.90;;;;;;4937749;28;20063;-63
2023/04/07 10:33:55;;;;;;;1.13;0.98;;;6.20;99.90;;;;;;4939584;29;20114;-63
2023/04/07 10:36:21;;;;;;;1.17;0.80;;;6.20;99.90;;;;;;4950049;28;20034;-63
2023/04/07 10:39:05;;;;;;;1.40;1.20;;;6.20;99.90;;;;;;4948313;28;20154;-61
2023/04/07 10:41:38;;;;;;;1.83;0.90;;;6.00;99.90;;;;;;4939554;28;20053;-62
2023/04/07 10:44:09;;;;;;;1.73;1.10;;;6.10;99.90;;;;;;4946302;29;20045;-61
2023/04/07 10:46:44;;;;;;;1.30;1.20;;;6.10;99.90;;;;;;4942502;29;20093;-63
2023/04/07 10:49:10;;;;;;;1.60;1.35;;;6.10;99.90;;;;;;4947412;29;20043;-63
2023/04/07 10:51:36;;;;;;;2.78;1.13;;;6.00;99.90;;;;;;4940194;29;20503;-63
2023/04/07 10:54:15;;;;;;;1.02;0.90;;;5.90;99.90;;;;;;4947471;29;20081;-62
2023/04/07 10:57:04;;;;;;;1.30;0.95;;;5.90;99.90;;;;;;4927090;29;20122;-61
2023/04/07 10:59:31;;;;;;;0.90;0.70;;;6.10;99.90;;;;;;4945894;28;20066;-62
2023/04/07 11:02:29;;;;;;;1.15;0.95;;;5.90;99.90;;;;;;4950744;28;20070;-59
2023/04/07 11:04:55;;;;;;;2.28;0.98;;;5.70;99.90;;;;;;4920739;29;20055;-59
2023/04/07 11:07:44;;;;;;;2.35;0.95;;;5.70;99.90;;;;;;4946127;29;20466;-61
2023/04/07 11:10:14;;;;;;;0.98;0.70;;;5.90;99.90;;;;;;4946971;29;20035;-63
2023/04/07 11:12:40;;;;;;;1.27;0.85;;;6.10;99.90;;;;;;4946004;29;20595;-63
2023/04/07 11:15:21;;;;;;;0.60;0.52;;;6.10;99.90;;;;;;4946144;29;20138;-62
2023/04/07 11:18:05;;;;;;;1.15;0.85;;;6.20;99.90;;;;;;4945685;29;20051;-60
2023/04/07 11:20:47;;;;;;;1.05;0.68;;;6.30;99.90;;;;;;4943506;29;20079;-63
2023/04/07 11:23:15;;;;;;;0.70;0.60;;;6.20;99.90;;;;;;4942586;29;20789;-59
2023/04/07 11:25:46;;;;;;;0.90;0.70;;;6.20;99.90;;;;;;4939104;29;20070;-62
2023/04/07 11:28:13;;;;;;;1.00;0.80;;;6.20;99.90;;;;;;4946349;29;20507;-60
2023/04/07 11:30:45;;;;;;;1.27;0.70;;;6.20;99.90;;;;;;4928447;28;20104;-60
2023/04/07 11:33:16;;;;;;;0.80;0.70;;;6.20;99.90;;;;;;4946402;29;20167;-59
2023/04/07 11:35:58;;;;;;;0.80;0.80;;;6.30;99.90;;;;;;4940282;28;20051;-61
2023/04/07 11:38:33;;;;;;;0.90;0.60;;;6.30;99.90;;;;;;4942297;29;20134;-61
2023/04/07 11:41:09;;;;;;;2.53;0.60;;;6.30;99.90;;;;;;4946653;29;20530;-61
2023/04/07 11:43:36;;;;;;;4.57;0.93;;;6.20;99.90;;;;;;4945608;29;20043;-57
2023/04/07 11:46:24;;;;;;;1.00;0.88;;;6.10;99.90;;;;;;4946092;29;20530;-62
2023/04/07 11:48:50;;;;;;;1.17;0.90;;;6.10;99.90;;;;;;4946708;29;20126;-62
2023/04/07 11:51:21;;;;;;;0.88;0.80;;;6.20;99.90;;;;;;4946745;28;20836;-58
2023/04/07 11:53:53;;;;;;;0.93;0.73;;;6.30;99.90;;;;;;4946571;29;20726;-59
2023/04/07 11:56:18;;;;;;;0.80;0.70;;;6.20;99.90;;;;;;4942760;29;20122;-61
2023/04/07 11:58:48;;;;;;;0.68;0.65;;;6.40;99.90;;;;;;4945897;29;20142;-57
2023/04/07 12:01:14;;;;;;;1.10;0.80;;;6.50;99.90;;;;;;4947049;28;20039;-63
2023/04/07 12:03:59;;;;;;;0.88;0.77;;;6.50;99.90;;;;;;4946903;29;20043;-62
2023/04/07 12:06:40;;;;;;;1.25;0.65;;;6.50;99.90;;;;;;4944498;29;20043;-63
2023/04/07 12:09:28;;;;;;;2.97;0.68;;;6.40;99.90;;;;;;4946733;29;20546;-63
2023/04/07 12:11:55;;;;;;;0.95;0.50;;;6.30;99.90;;;;;;4946107;29;20066;-63
2023/04/07 12:14:20;;;;;;;0.52;0.38;;;6.40;99.90;;;;;;4949244;28;20090;-64
2023/04/07 12:16:46;;;;;;;;;;;6.40;99.90;;;;;;4949501;29;20074;-63
2023/04/07 12:19:12;;;;;;;0.43;0.43;;;6.30;99.90;;;;;;4950697;29;19918;-63
2023/04/07 12:21:37;;;;;;;0.43;0.43;;;6.30;99.90;;;;;;4949044;29;20483;-63
2023/04/07 12:24:03;;;;;;;1.02;0.70;;;6.30;99.90;;;;;;4950290;29;20126;-62
2023/04/07 12:26:29;;;;;;;0.68;0.50;;;6.40;99.90;;;;;;4946139;29;20054;-63
2023/04/07 12:28:55;;;;;;;;;;;6.60;99.90;;;;;;4950151;29;20671;-57
2023/04/07 12:31:20;;;;;;;0.95;0.60;;;6.60;99.90;;;;;;4946826;28;19956;-63
2023/04/07 12:33:46;;;;;;;;;;;6.70;99.90;;;;;;4948649;29;20142;-64
2023/04/07 12:36:12;;;;;;;1.10;0.70;;;6.80;99.90;;;;;;4946304;29;20038;-61
2023/04/07 12:38:37;;;;;;;;;;;6.90;99.90;;;;;;4950075;29;20043;-62
2023/04/07 12:41:03;;;;;;;0.35;0.35;;;6.90;99.90;;;;;;4948579;29;19923;-63
2023/04/07 12:43:29;;;;;;;;;;;6.90;99.90;;;;;;4949916;29;20098;-64
2023/04/07 12:45:55;;;;;;;2.20;0.63;;;7.10;99.90;;;;;;4941309;28;19933;-64
2023/04/07 12:48:20;;;;;;;;;;;7.30;99.90;;;;;;4950502;29;20420;-59
2023/04/07 12:50:46;;;;;;;0.60;0.60;;;7.30;99.90;;;;;;4948706;29;19986;-61
2023/04/07 12:53:12;;;;;;;;;;;7.40;99.90;;;;;;4950573;29;20058;-63
2023/04/07 12:55:37;;;;;;;1.75;0.80;;;7.60;99.90;;;;;;4941337;28;19933;-58
2023/04/07 12:58:03;;;;;;;;;;;7.60;99.90;;;;;;4949776;29;20134;-63
2023/04/07 13:00:30;;;;;;;0.60;0.50;;;7.70;99.90;;;;;;4951825;28;20005;-62
2023/04/07 13:02:56;;;;;;;0.70;0.55;;;7.90;99.90;;;;;;4950075;29;20418;-62
2023/04/07 13:05:21;;;;;;;;;;;8.00;99.90;;;;;;4948882;29;20051;-62
2023/04/07 13:07:49;;;;;;;0.75;0.60;;;8.10;99.90;;;;;;4951017;29;19926;-59
2023/04/07 13:10:15;;;;;;;0.40;0.40;;;8.30;99.90;;;;;;4940765;29;20046;-64